sensor_id;sensor_type;location;lat;lon;timestamp;temperature;humidity
5576;DHT22;2810;50.134;8.626;2022-08-19T00:02:19;21.30;99.90
5576;DHT22;2810;50.134;8.626;2022-08-19T00:04:44;21.40;99.90
5576;DHT22;2810;50.134;8.626;2022-08-19T00:07:13;21.30;99.90
5576;DHT22;2810;50.134;8.626;2022-08-19T00:09:38;21.30;99.90
5576;DHT22;2810;50.134;8.626;2022-08-19T00:12:03;21.30;99.90
5576;DHT22;2810;50.134;8.626;2022-08-19T00:14:29;21.30;99.90
5576;DHT22;2810;50.134;8.626;2022-08-19T00:16:57;21.30;99.90
5576;DHT22;2810;50.134;8.626;2022-08-19T00:19:23;21.30;99.90
5576;DHT22;2810;50.134;8.626;2022-08-19T00:21:49;21.30;99.90
5576;DHT22;2810;50.134;8.626;2022-08-19T00:24:14;21.30;99.90
5576;DHT22;2810;50.134;8.626;2022-08-19T00:26:41;21.30;99.90
5576;DHT22;2810;50.134;8.626;2022-08-19T00:29:08;21.40;99.90
5576;DHT22;2810;50.134;8.626;2022-08-19T00:31:33;21.50;99.90
5576;DHT22;2810;50.134;8.626;2022-08-19T00:33:59;21.40;99.90
5576;DHT22;2810;50.134;8.626;2022-08-19T00:36:24;21.50;99.90
5576;DHT22;2810;50.134;8.626;2022-08-19T00:38:50;21.40;99.90
5576;DHT22;2810;50.134;8.626;2022-08-19T00:41:17;21.50;99.90
5576;DHT22;2810;50.134;8.626;2022-08-19T00:43:56;21.50;99.90
5576;DHT22;2810;50.134;8.626;2022-08-19T00:46:21;21.70;99.90
5576;DHT22;2810;50.134;8.626;2022-08-19T00:48:47;21.50;99.90
5576;DHT22;2810;50.134;8.626;2022-08-19T00:51:12;21.50;99.90
5576;DHT22;2810;50.134;8.626;2022-08-19T00:53:37;21.50;99.90
5576;DHT22;2810;50.134;8.626;2022-08-19T00:56:04;21.50;99.90
5576;DHT22;2810;50.134;8.626;2022-08-19T00:58:32;21.50;99.90
5576;DHT22;2810;50.134;8.626;2022-08-19T01:00:58;21.50;99.90
5576;DHT22;2810;50.134;8.626;2022-08-19T01:03:24;21.50;99.90
5576;DHT22;2810;50.134;8.626;2022-08-19T01:05:49;21.50;99.90
5576;DHT22;2810;50.134;8.626;2022-08-19T01:08:16;21.50;99.90
5576;DHT22;2810;50.134;8.626;2022-08-19T01:10:50;21.60;99.90
5576;DHT22;2810;50.134;8.626;2022-08-19T01:13:17;21.50;99.90
5576;DHT22;2810;50.134;8.626;2022-08-19T01:15:45;21.50;99.90
5576;DHT22;2810;50.134;8.626;2022-08-19T01:18:12;21.50;99.90
5576;DHT22;2810;50.134;8.626;2022-08-19T01:20:39;21.60;99.90
5576;DHT22;2810;50.134;8.626;2022-08-19T01:23:04;21.50;99.90
5576;DHT22;2810;50.134;8.626;2022-08-19T01:25:39;21.60;99.90
5576;DHT22;2810;50.134;8.626;2022-08-19T01:28:06;21.60;99.90
5576;DHT22;2810;50.134;8.626;2022-08-19T01:30:33;21.60;99.90
5576;DHT22;2810;50.134;8.626;2022-08-19T01:32:59;21.70;99.90
5576;DHT22;2810;50.134;8.626;2022-08-19T01:35:26;21.60;99.90
5576;DHT22;2810;50.134;8.626;2022-08-19T01:37:55;21.70;99.90
5576;DHT22;2810;50.134;8.626;2022-08-19T01:40:21;21.70;99.90
5576;DHT22;2810;50.134;8.626;2022-08-19T01:42:48;21.70;99.90
5576;DHT22;2810;50.134;8.626;2022-08-19T01:45:14;21.80;99.90
5576;DHT22;2810;50.134;8.626;2022-08-19T01:47:40;21.80;99.90
5576;DHT22;2810;50.134;8.626;2022-08-19T01:50:06;21.80;99.90
5576;DHT22;2810;50.134;8.626;2022-08-19T01:52:32;21.70;99.90
5576;DHT22;2810;50.134;8.626;2022-08-19T01:54:59;21.70;99.90
5576;DHT22;2810;50.134;8.626;2022-08-19T01:57:25;21.80;99.90
5576;DHT22;2810;50.134;8.626;2022-08-19T01:59:51;21.70;99.90
5576;DHT22;2810;50.134;8.626;2022-08-19T02:02:16;21.70;99.90
5576;DHT22;2810;50.134;8.626;2022-08-19T02:04:42;21.70;99.90
5576;DHT22;2810;50.134;8.626;2022-08-19T02:07:07;21.70;99.90
5576;DHT22;2810;50.134;8.626;2022-08-19T02:09:33;21.70;99.90
5576;DHT22;2810;50.134;8.626;2022-08-19T02:11:58;21.80;99.90
5576;DHT22;2810;50.134;8.626;2022-08-19T02:14:24;21.70;99.90
5576;DHT22;2810;50.134;8.626;2022-08-19T02:16:49;21.70;99.90
5576;DHT22;2810;50.134;8.626;2022-08-19T02:19:15;21.70;99.90
5576;DHT22;2810;50.134;8.626;2022-08-19T02:21:40;21.80;99.90
5576;DHT22;2810;50.134;8.626;2022-08-19T02:24:06;21.80;99.90
5576;DHT22;2810;50.134;8.626;2022-08-19T02:26:32;21.80;99.90
5576;DHT22;2810;50.134;8.626;2022-08-19T02:28:58;21.80;99.90
5576;DHT22;2810;50.134;8.626;2022-08-19T02:31:24;21.70;99.90
5576;DHT22;2810;50.134;8.626;2022-08-19T02:33:50;21.80;99.90
5576;DHT22;2810;50.134;8.626;2022-08-19T02:36:16;21.80;99.90
5576;DHT22;2810;50.134;8.626;2022-08-19T02:38:41;21.70;99.90
5576;DHT22;2810;50.134;8.626;2022-08-19T02:41:11;21.70;99.90
5576;DHT22;2810;50.134;8.626;2022-08-19T02:43:37;21.70;99.90
5576;DHT22;2810;50.134;8.626;2022-08-19T02:48:38;21.60;99.90
5576;DHT22;2810;50.134;8.626;2022-08-19T02:51:03;21.60;99.90
5576;DHT22;2810;50.134;8.626;2022-08-19T02:53:30;21.50;99.90
5576;DHT22;2810;50.134;8.626;2022-08-19T02:55:56;21.60;99.90
5576;DHT22;2810;50.134;8.626;2022-08-19T02:58:21;21.50;99.90
5576;DHT22;2810;50.134;8.626;2022-08-19T03:00:49;21.50;99.90
5576;DHT22;2810;50.134;8.626;2022-08-19T03:03:16;21.50;99.90
5576;DHT22;2810;50.134;8.626;2022-08-19T03:05:41;21.50;99.90
5576;DHT22;2810;50.134;8.626;2022-08-19T03:08:08;21.50;99.90
5576;DHT22;2810;50.134;8.626;2022-08-19T03:10:39;21.50;99.90
5576;DHT22;2810;50.134;8.626;2022-08-19T03:13:04;21.50;99.90
5576;DHT22;2810;50.134;8.626;2022-08-19T03:15:30;21.40;99.90
5576;DHT22;2810;50.134;8.626;2022-08-19T03:17:55;21.40;99.90
5576;DHT22;2810;50.134;8.626;2022-08-19T03:20:21;21.30;99.90
5576;DHT22;2810;50.134;8.626;2022-08-19T03:22:46;21.20;99.90
5576;DHT22;2810;50.134;8.626;2022-08-19T03:25:12;21.20;99.90
5576;DHT22;2810;50.134;8.626;2022-08-19T03:27:37;21.20;99.90
5576;DHT22;2810;50.134;8.626;2022-08-19T03:30:02;21.10;99.90
5576;DHT22;2810;50.134;8.626;2022-08-19T03:32:28;21.10;99.90
5576;DHT22;2810;50.134;8.626;2022-08-19T03:34:53;21.00;99.90
5576;DHT22;2810;50.134;8.626;2022-08-19T03:37:19;21.10;99.90
5576;DHT22;2810;50.134;8.626;2022-08-19T03:39:44;21.00;99.90
5576;DHT22;2810;50.134;8.626;2022-08-19T03:42:10;20.90;99.90
5576;DHT22;2810;50.134;8.626;2022-08-19T03:44:36;20.90;99.90
5576;DHT22;2810;50.134;8.626;2022-08-19T03:47:03;20.90;99.90
5576;DHT22;2810;50.134;8.626;2022-08-19T03:49:29;20.90;99.90
5576;DHT22;2810;50.134;8.626;2022-08-19T03:51:56;20.80;99.90
5576;DHT22;2810;50.134;8.626;2022-08-19T03:54:23;20.80;99.90
5576;DHT22;2810;50.134;8.626;2022-08-19T03:56:49;20.80;99.90
5576;DHT22;2810;50.134;8.626;2022-08-19T03:59:16;20.80;99.90
5576;DHT22;2810;50.134;8.626;2022-08-19T04:01:42;20.70;99.90
5576;DHT22;2810;50.134;8.626;2022-08-19T04:04:08;20.70;99.90
5576;DHT22;2810;50.134;8.626;2022-08-19T04:06:34;20.80;99.90
5576;DHT22;2810;50.134;8.626;2022-08-19T04:09:01;20.80;99.90
5576;DHT22;2810;50.134;8.626;2022-08-19T04:11:28;20.80;99.90
5576;DHT22;2810;50.134;8.626;2022-08-19T04:13:54;20.80;99.90
5576;DHT22;2810;50.134;8.626;2022-08-19T04:16:20;20.70;99.90
5576;DHT22;2810;50.134;8.626;2022-08-19T04:18:47;20.70;99.90
5576;DHT22;2810;50.134;8.626;2022-08-19T04:21:16;20.70;99.90
5576;DHT22;2810;50.134;8.626;2022-08-19T04:23:42;20.70;99.90
5576;DHT22;2810;50.134;8.626;2022-08-19T04:26:12;20.70;99.90
5576;DHT22;2810;50.134;8.626;2022-08-19T04:28:38;20.70;99.90
5576;DHT22;2810;50.134;8.626;2022-08-19T04:31:03;20.70;99.90
5576;DHT22;2810;50.134;8.626;2022-08-19T04:33:28;20.70;99.90
5576;DHT22;2810;50.134;8.626;2022-08-19T04:35:54;20.60;99.90
5576;DHT22;2810;50.134;8.626;2022-08-19T04:38:20;20.60;99.90
5576;DHT22;2810;50.134;8.626;2022-08-19T04:40:48;20.60;99.90
5576;DHT22;2810;50.134;8.626;2022-08-19T04:43:33;20.60;99.90
5576;DHT22;2810;50.134;8.626;2022-08-19T04:46:09;20.60;99.90
5576;DHT22;2810;50.134;8.626;2022-08-19T04:48:35;20.60;99.90
5576;DHT22;2810;50.134;8.626;2022-08-19T04:51:05;20.60;99.90
5576;DHT22;2810;50.134;8.626;2022-08-19T04:53:31;20.60;99.90
5576;DHT22;2810;50.134;8.626;2022-08-19T04:55:58;20.70;99.90
5576;DHT22;2810;50.134;8.626;2022-08-19T04:58:24;20.70;99.90
5576;DHT22;2810;50.134;8.626;2022-08-19T05:00:50;20.70;99.90
5576;DHT22;2810;50.134;8.626;2022-08-19T05:03:16;20.70;99.90
5576;DHT22;2810;50.134;8.626;2022-08-19T05:05:42;20.80;99.90
5576;DHT22;2810;50.134;8.626;2022-08-19T05:08:09;20.80;99.90
5576;DHT22;2810;50.134;8.626;2022-08-19T05:10:35;20.80;99.90
5576;DHT22;2810;50.134;8.626;2022-08-19T05:13:00;20.90;99.90
5576;DHT22;2810;50.134;8.626;2022-08-19T05:15:26;20.90;99.90
5576;DHT22;2810;50.134;8.626;2022-08-19T05:17:51;21.00;99.90
5576;DHT22;2810;50.134;8.626;2022-08-19T05:20:37;21.00;99.90
5576;DHT22;2810;50.134;8.626;2022-08-19T05:23:21;21.20;99.90
5576;DHT22;2810;50.134;8.626;2022-08-19T05:25:47;21.30;99.90
5576;DHT22;2810;50.134;8.626;2022-08-19T05:28:12;21.30;99.90
5576;DHT22;2810;50.134;8.626;2022-08-19T05:30:37;21.50;99.90
5576;DHT22;2810;50.134;8.626;2022-08-19T05:33:03;21.60;99.90
5576;DHT22;2810;50.134;8.626;2022-08-19T05:35:28;21.70;99.90
5576;DHT22;2810;50.134;8.626;2022-08-19T05:37:54;21.70;99.90
5576;DHT22;2810;50.134;8.626;2022-08-19T05:40:19;21.90;99.90
5576;DHT22;2810;50.134;8.626;2022-08-19T05:42:45;21.90;99.90
5576;DHT22;2810;50.134;8.626;2022-08-19T05:45:11;22.00;99.90
5576;DHT22;2810;50.134;8.626;2022-08-19T05:47:36;22.10;99.90
5576;DHT22;2810;50.134;8.626;2022-08-19T05:50:02;22.10;99.90
5576;DHT22;2810;50.134;8.626;2022-08-19T05:52:28;22.20;99.90
5576;DHT22;2810;50.134;8.626;2022-08-19T05:54:54;22.30;99.90
5576;DHT22;2810;50.134;8.626;2022-08-19T05:57:23;22.40;99.90
5576;DHT22;2810;50.134;8.626;2022-08-19T05:59:48;22.40;99.90
5576;DHT22;2810;50.134;8.626;2022-08-19T06:02:16;22.50;99.90
5576;DHT22;2810;50.134;8.626;2022-08-19T06:04:41;22.60;99.90
5576;DHT22;2810;50.134;8.626;2022-08-19T06:07:10;22.70;99.90
5576;DHT22;2810;50.134;8.626;2022-08-19T06:09:35;22.80;99.90
5576;DHT22;2810;50.134;8.626;2022-08-19T06:12:02;22.90;99.90
5576;DHT22;2810;50.134;8.626;2022-08-19T06:14:31;23.00;99.90
5576;DHT22;2810;50.134;8.626;2022-08-19T06:16:57;23.10;99.90
5576;DHT22;2810;50.134;8.626;2022-08-19T06:19:23;23.20;99.90
5576;DHT22;2810;50.134;8.626;2022-08-19T06:21:53;23.30;99.90
5576;DHT22;2810;50.134;8.626;2022-08-19T06:24:20;23.40;99.90
5576;DHT22;2810;50.134;8.626;2022-08-19T06:26:47;23.50;99.90
5576;DHT22;2810;50.134;8.626;2022-08-19T06:29:13;23.70;99.90
5576;DHT22;2810;50.134;8.626;2022-08-19T06:31:41;23.70;99.90
5576;DHT22;2810;50.134;8.626;2022-08-19T06:34:07;24.20;99.90
5576;DHT22;2810;50.134;8.626;2022-08-19T06:36:33;24.40;99.90
5576;DHT22;2810;50.134;8.626;2022-08-19T06:39:03;24.90;99.90
5576;DHT22;2810;50.134;8.626;2022-08-19T06:41:29;25.30;99.90
5576;DHT22;2810;50.134;8.626;2022-08-19T06:43:55;25.60;99.90
5576;DHT22;2810;50.134;8.626;2022-08-19T06:46:21;25.60;99.90
5576;DHT22;2810;50.134;8.626;2022-08-19T06:48:47;25.40;99.90
5576;DHT22;2810;50.134;8.626;2022-08-19T06:51:16;25.30;99.90
5576;DHT22;2810;50.134;8.626;2022-08-19T06:53:44;25.20;99.90
5576;DHT22;2810;50.134;8.626;2022-08-19T06:56:11;25.50;99.90
5576;DHT22;2810;50.134;8.626;2022-08-19T06:58:37;26.10;99.90
5576;DHT22;2810;50.134;8.626;2022-08-19T07:01:03;26.60;99.90
5576;DHT22;2810;50.134;8.626;2022-08-19T07:03:31;27.10;99.90
5576;DHT22;2810;50.134;8.626;2022-08-19T07:05:57;27.50;99.90
5576;DHT22;2810;50.134;8.626;2022-08-19T07:08:22;28.10;99.90
5576;DHT22;2810;50.134;8.626;2022-08-19T07:10:49;28.60;99.90
5576;DHT22;2810;50.134;8.626;2022-08-19T07:13:14;28.90;99.90
5576;DHT22;2810;50.134;8.626;2022-08-19T07:15:40;29.30;99.90
5576;DHT22;2810;50.134;8.626;2022-08-19T07:18:05;29.50;99.90
5576;DHT22;2810;50.134;8.626;2022-08-19T07:20:31;29.70;99.90
5576;DHT22;2810;50.134;8.626;2022-08-19T07:22:58;29.70;99.80
5576;DHT22;2810;50.134;8.626;2022-08-19T07:25:23;29.60;99.90
5576;DHT22;2810;50.134;8.626;2022-08-19T07:27:49;29.40;99.90
5576;DHT22;2810;50.134;8.626;2022-08-19T07:30:14;29.50;99.70
5576;DHT22;2810;50.134;8.626;2022-08-19T07:32:40;29.80;98.80
5576;DHT22;2810;50.134;8.626;2022-08-19T07:35:06;30.10;98.30
5576;DHT22;2810;50.134;8.626;2022-08-19T07:37:32;30.20;97.40
5576;DHT22;2810;50.134;8.626;2022-08-19T07:39:57;29.90;97.30
5576;DHT22;2810;50.134;8.626;2022-08-19T07:42:22;29.80;97.60
5576;DHT22;2810;50.134;8.626;2022-08-19T07:44:48;29.80;97.40
5576;DHT22;2810;50.134;8.626;2022-08-19T07:47:13;30.00;96.90
5576;DHT22;2810;50.134;8.626;2022-08-19T07:49:42;30.10;96.20
5576;DHT22;2810;50.134;8.626;2022-08-19T07:52:08;30.10;95.70
5576;DHT22;2810;50.134;8.626;2022-08-19T07:54:34;30.30;95.70
5576;DHT22;2810;50.134;8.626;2022-08-19T07:57:01;30.20;95.50
5576;DHT22;2810;50.134;8.626;2022-08-19T07:59:27;30.40;95.20
5576;DHT22;2810;50.134;8.626;2022-08-19T08:01:53;30.40;95.10
5576;DHT22;2810;50.134;8.626;2022-08-19T08:04:19;30.30;94.90
5576;DHT22;2810;50.134;8.626;2022-08-19T08:07:04;30.40;94.50
5576;DHT22;2810;50.134;8.626;2022-08-19T08:09:49;30.00;94.70
5576;DHT22;2810;50.134;8.626;2022-08-19T08:12:16;30.10;94.80
5576;DHT22;2810;50.134;8.626;2022-08-19T08:14:46;30.60;94.20
5576;DHT22;2810;50.134;8.626;2022-08-19T08:17:13;30.80;93.20
5576;DHT22;2810;50.134;8.626;2022-08-19T08:19:39;31.10;92.70
5576;DHT22;2810;50.134;8.626;2022-08-19T08:22:06;31.50;92.40
5576;DHT22;2810;50.134;8.626;2022-08-19T08:24:32;31.70;91.30
5576;DHT22;2810;50.134;8.626;2022-08-19T08:26:59;31.80;91.20
5576;DHT22;2810;50.134;8.626;2022-08-19T08:29:27;32.30;89.60
5576;DHT22;2810;50.134;8.626;2022-08-19T08:31:53;32.80;88.40
5576;DHT22;2810;50.134;8.626;2022-08-19T08:34:19;32.60;87.80
5576;DHT22;2810;50.134;8.626;2022-08-19T08:36:45;32.30;88.60
5576;DHT22;2810;50.134;8.626;2022-08-19T08:39:12;31.90;89.30
5576;DHT22;2810;50.134;8.626;2022-08-19T08:47:17;32.90;86.00
5576;DHT22;2810;50.134;8.626;2022-08-19T08:49:45;33.20;84.60
5576;DHT22;2810;50.134;8.626;2022-08-19T08:52:19;33.30;82.80
5576;DHT22;2810;50.134;8.626;2022-08-19T08:54:47;33.10;83.50
5576;DHT22;2810;50.134;8.626;2022-08-19T08:57:14;33.30;82.70
5576;DHT22;2810;50.134;8.626;2022-08-19T08:59:42;33.00;82.40
5576;DHT22;2810;50.134;8.626;2022-08-19T09:02:08;33.30;83.90
5576;DHT22;2810;50.134;8.626;2022-08-19T09:04:35;33.70;79.70
5576;DHT22;2810;50.134;8.626;2022-08-19T09:07:22;34.10;78.60
5576;DHT22;2810;50.134;8.626;2022-08-19T09:09:52;33.90;78.10
5576;DHT22;2810;50.134;8.626;2022-08-19T09:15:06;34.20;76.60
5576;DHT22;2810;50.134;8.626;2022-08-19T09:17:32;34.30;75.70
5576;DHT22;2810;50.134;8.626;2022-08-19T09:20:00;34.50;74.20
5576;DHT22;2810;50.134;8.626;2022-08-19T09:22:33;34.60;70.80
5576;DHT22;2810;50.134;8.626;2022-08-19T09:24:59;34.80;70.20
5576;DHT22;2810;50.134;8.626;2022-08-19T09:27:25;34.70;71.60
5576;DHT22;2810;50.134;8.626;2022-08-19T09:29:52;34.90;70.10
5576;DHT22;2810;50.134;8.626;2022-08-19T09:32:19;35.00;69.90
5576;DHT22;2810;50.134;8.626;2022-08-19T09:34:44;34.00;72.20
5576;DHT22;2810;50.134;8.626;2022-08-19T09:37:10;32.90;75.10
5576;DHT22;2810;50.134;8.626;2022-08-19T09:39:37;32.00;77.70
5576;DHT22;2810;50.134;8.626;2022-08-19T09:42:02;31.80;78.10
5576;DHT22;2810;50.134;8.626;2022-08-19T09:44:28;31.90;79.40
5576;DHT22;2810;50.134;8.626;2022-08-19T09:46:54;32.60;76.50
5576;DHT22;2810;50.134;8.626;2022-08-19T09:49:20;32.70;77.30
5576;DHT22;2810;50.134;8.626;2022-08-19T09:51:50;32.80;75.90
5576;DHT22;2810;50.134;8.626;2022-08-19T09:54:16;33.50;74.50
5576;DHT22;2810;50.134;8.626;2022-08-19T09:56:41;33.30;73.60
5576;DHT22;2810;50.134;8.626;2022-08-19T09:59:08;32.50;76.20
5576;DHT22;2810;50.134;8.626;2022-08-19T10:01:34;31.50;79.20
5576;DHT22;2810;50.134;8.626;2022-08-19T10:04:00;30.70;82.10
5576;DHT22;2810;50.134;8.626;2022-08-19T10:06:26;30.60;82.80
5576;DHT22;2810;50.134;8.626;2022-08-19T10:08:55;31.40;80.50
5576;DHT22;2810;50.134;8.626;2022-08-19T10:11:21;32.10;77.90
5576;DHT22;2810;50.134;8.626;2022-08-19T10:13:47;32.10;76.20
5576;DHT22;2810;50.134;8.626;2022-08-19T10:16:15;31.20;78.40
5576;DHT22;2810;50.134;8.626;2022-08-19T10:18:41;30.40;80.90
5576;DHT22;2810;50.134;8.626;2022-08-19T10:21:10;30.40;81.10
5576;DHT22;2810;50.134;8.626;2022-08-19T10:23:37;31.10;80.00
5576;DHT22;2810;50.134;8.626;2022-08-19T10:26:03;31.20;78.30
5576;DHT22;2810;50.134;8.626;2022-08-19T10:28:31;30.80;80.90
5576;DHT22;2810;50.134;8.626;2022-08-19T10:30:57;30.40;82.00
5576;DHT22;2810;50.134;8.626;2022-08-19T10:33:22;30.30;83.90
5576;DHT22;2810;50.134;8.626;2022-08-19T10:35:58;30.80;81.60
5576;DHT22;2810;50.134;8.626;2022-08-19T10:38:24;30.80;82.00
5576;DHT22;2810;50.134;8.626;2022-08-19T10:40:50;30.70;82.40
5576;DHT22;2810;50.134;8.626;2022-08-19T10:43:15;30.80;81.80
5576;DHT22;2810;50.134;8.626;2022-08-19T10:45:41;30.40;82.70
5576;DHT22;2810;50.134;8.626;2022-08-19T10:48:07;30.50;81.60
5576;DHT22;2810;50.134;8.626;2022-08-19T10:50:32;30.80;81.30
5576;DHT22;2810;50.134;8.626;2022-08-19T10:53:17;30.50;81.20
5576;DHT22;2810;50.134;8.626;2022-08-19T10:55:44;30.90;80.70
5576;DHT22;2810;50.134;8.626;2022-08-19T10:58:28;31.50;78.20
5576;DHT22;2810;50.134;8.626;2022-08-19T11:00:54;32.30;75.20
5576;DHT22;2810;50.134;8.626;2022-08-19T11:03:20;32.80;73.20
5576;DHT22;2810;50.134;8.626;2022-08-19T11:05:46;33.40;72.00
5576;DHT22;2810;50.134;8.626;2022-08-19T11:08:14;33.70;70.70
5576;DHT22;2810;50.134;8.626;2022-08-19T11:10:42;33.70;70.20
5576;DHT22;2810;50.134;8.626;2022-08-19T11:13:08;33.40;71.10
5576;DHT22;2810;50.134;8.626;2022-08-19T11:15:33;33.20;72.70
5576;DHT22;2810;50.134;8.626;2022-08-19T11:17:59;32.30;75.20
5576;DHT22;2810;50.134;8.626;2022-08-19T11:20:24;31.50;74.70
5576;DHT22;2810;50.134;8.626;2022-08-19T11:22:50;31.10;75.00
5576;DHT22;2810;50.134;8.626;2022-08-19T11:25:16;31.70;75.60
5576;DHT22;2810;50.134;8.626;2022-08-19T11:27:41;32.50;72.80
5576;DHT22;2810;50.134;8.626;2022-08-19T11:30:08;33.10;71.40
5576;DHT22;2810;50.134;8.626;2022-08-19T11:32:34;33.30;72.30
5576;DHT22;2810;50.134;8.626;2022-08-19T11:35:00;33.30;71.10
5576;DHT22;2810;50.134;8.626;2022-08-19T11:37:25;32.60;72.50
5576;DHT22;2810;50.134;8.626;2022-08-19T11:39:51;32.00;71.20
5576;DHT22;2810;50.134;8.626;2022-08-19T11:42:17;31.60;72.30
5576;DHT22;2810;50.134;8.626;2022-08-19T11:45:01;31.40;73.20
5576;DHT22;2810;50.134;8.626;2022-08-19T11:47:28;31.20;73.10
5576;DHT22;2810;50.134;8.626;2022-08-19T11:49:54;31.60;73.00
5576;DHT22;2810;50.134;8.626;2022-08-19T11:52:19;31.60;73.20
5576;DHT22;2810;50.134;8.626;2022-08-19T11:54:45;31.20;75.00
5576;DHT22;2810;50.134;8.626;2022-08-19T11:57:10;31.00;74.90
5576;DHT22;2810;50.134;8.626;2022-08-19T11:59:36;30.40;76.20
5576;DHT22;2810;50.134;8.626;2022-08-19T12:02:01;30.20;75.70
5576;DHT22;2810;50.134;8.626;2022-08-19T12:04:27;30.30;75.00
5576;DHT22;2810;50.134;8.626;2022-08-19T12:06:52;30.50;75.50
5576;DHT22;2810;50.134;8.626;2022-08-19T12:09:18;31.20;73.00
5576;DHT22;2810;50.134;8.626;2022-08-19T12:11:43;31.50;71.50
5576;DHT22;2810;50.134;8.626;2022-08-19T12:14:10;31.00;72.00
5576;DHT22;2810;50.134;8.626;2022-08-19T12:16:36;30.50;73.10
5576;DHT22;2810;50.134;8.626;2022-08-19T12:19:03;30.20;74.70
5576;DHT22;2810;50.134;8.626;2022-08-19T12:21:29;29.80;73.50
5576;DHT22;2810;50.134;8.626;2022-08-19T12:23:56;29.50;71.90
5576;DHT22;2810;50.134;8.626;2022-08-19T12:26:22;29.30;72.20
5576;DHT22;2810;50.134;8.626;2022-08-19T12:28:48;29.20;72.90
5576;DHT22;2810;50.134;8.626;2022-08-19T12:31:13;28.90;73.70
5576;DHT22;2810;50.134;8.626;2022-08-19T12:33:39;28.80;75.00
5576;DHT22;2810;50.134;8.626;2022-08-19T12:36:06;28.80;76.00
5576;DHT22;2810;50.134;8.626;2022-08-19T12:38:32;28.90;75.50
5576;DHT22;2810;50.134;8.626;2022-08-19T12:40:59;29.00;76.30
5576;DHT22;2810;50.134;8.626;2022-08-19T12:43:26;28.90;75.10
5576;DHT22;2810;50.134;8.626;2022-08-19T12:45:51;29.00;74.00
5576;DHT22;2810;50.134;8.626;2022-08-19T12:48:17;29.70;75.30
5576;DHT22;2810;50.134;8.626;2022-08-19T12:50:43;30.40;70.80
5576;DHT22;2810;50.134;8.626;2022-08-19T12:53:10;30.70;67.40
5576;DHT22;2810;50.134;8.626;2022-08-19T12:55:36;31.10;66.70
5576;DHT22;2810;50.134;8.626;2022-08-19T12:58:01;31.40;66.70
5576;DHT22;2810;50.134;8.626;2022-08-19T13:00:27;31.90;66.70
5576;DHT22;2810;50.134;8.626;2022-08-19T13:02:53;31.90;65.70
5576;DHT22;2810;50.134;8.626;2022-08-19T13:05:20;31.80;66.20
5576;DHT22;2810;50.134;8.626;2022-08-19T13:07:47;31.40;67.70
5576;DHT22;2810;50.134;8.626;2022-08-19T13:10:14;31.00;67.30
5576;DHT22;2810;50.134;8.626;2022-08-19T13:12:43;30.90;66.10
5576;DHT22;2810;50.134;8.626;2022-08-19T13:15:09;30.90;65.00
5576;DHT22;2810;50.134;8.626;2022-08-19T13:17:35;30.60;63.80
5576;DHT22;2810;50.134;8.626;2022-08-19T13:20:01;30.40;66.30
5576;DHT22;2810;50.134;8.626;2022-08-19T13:22:26;30.50;67.00
5576;DHT22;2810;50.134;8.626;2022-08-19T13:24:52;30.50;66.60
5576;DHT22;2810;50.134;8.626;2022-08-19T13:27:18;30.60;66.80
5576;DHT22;2810;50.134;8.626;2022-08-19T13:29:43;30.90;66.10
5576;DHT22;2810;50.134;8.626;2022-08-19T13:32:28;31.00;66.60
5576;DHT22;2810;50.134;8.626;2022-08-19T13:35:13;31.00;65.60
5576;DHT22;2810;50.134;8.626;2022-08-19T13:37:38;30.90;66.60
5576;DHT22;2810;50.134;8.626;2022-08-19T13:40:07;30.80;66.20
5576;DHT22;2810;50.134;8.626;2022-08-19T13:42:36;30.50;67.80
5576;DHT22;2810;50.134;8.626;2022-08-19T13:45:02;30.50;69.00
5576;DHT22;2810;50.134;8.626;2022-08-19T13:47:27;30.30;69.50
5576;DHT22;2810;50.134;8.626;2022-08-19T13:49:53;30.10;69.40
5576;DHT22;2810;50.134;8.626;2022-08-19T13:52:18;30.00;70.20
5576;DHT22;2810;50.134;8.626;2022-08-19T13:54:44;29.70;71.20
5576;DHT22;2810;50.134;8.626;2022-08-19T13:57:09;29.70;70.80
5576;DHT22;2810;50.134;8.626;2022-08-19T13:59:34;29.90;69.90
5576;DHT22;2810;50.134;8.626;2022-08-19T14:02:00;29.70;67.80
5576;DHT22;2810;50.134;8.626;2022-08-19T14:04:26;29.50;69.20
5576;DHT22;2810;50.134;8.626;2022-08-19T14:06:51;29.30;70.50
5576;DHT22;2810;50.134;8.626;2022-08-19T14:09:16;29.30;71.60
5576;DHT22;2810;50.134;8.626;2022-08-19T14:11:42;29.50;72.30
5576;DHT22;2810;50.134;8.626;2022-08-19T14:14:07;29.40;71.20
5576;DHT22;2810;50.134;8.626;2022-08-19T14:16:33;29.60;72.10
5576;DHT22;2810;50.134;8.626;2022-08-19T14:18:58;29.80;70.30
5576;DHT22;2810;50.134;8.626;2022-08-19T14:21:24;30.10;68.50
5576;DHT22;2810;50.134;8.626;2022-08-19T14:23:50;30.10;68.20
5576;DHT22;2810;50.134;8.626;2022-08-19T14:26:17;30.30;68.50
5576;DHT22;2810;50.134;8.626;2022-08-19T14:28:42;30.40;65.70
5576;DHT22;2810;50.134;8.626;2022-08-19T14:31:09;30.50;67.10
5576;DHT22;2810;50.134;8.626;2022-08-19T14:33:35;30.40;67.80
5576;DHT22;2810;50.134;8.626;2022-08-19T14:36:00;30.50;67.00
5576;DHT22;2810;50.134;8.626;2022-08-19T14:38:26;30.50;65.60
5576;DHT22;2810;50.134;8.626;2022-08-19T14:40:52;30.50;66.70
5576;DHT22;2810;50.134;8.626;2022-08-19T14:43:18;30.40;66.40
5576;DHT22;2810;50.134;8.626;2022-08-19T14:45:44;30.40;65.30
5576;DHT22;2810;50.134;8.626;2022-08-19T14:48:10;30.30;64.80
5576;DHT22;2810;50.134;8.626;2022-08-19T14:50:35;30.30;66.60
5576;DHT22;2810;50.134;8.626;2022-08-19T14:53:08;30.40;66.10
5576;DHT22;2810;50.134;8.626;2022-08-19T14:55:34;30.60;65.70
5576;DHT22;2810;50.134;8.626;2022-08-19T14:57:59;30.70;63.50
5576;DHT22;2810;50.134;8.626;2022-08-19T15:00:25;30.70;64.10
5576;DHT22;2810;50.134;8.626;2022-08-19T15:02:50;30.60;64.20
5576;DHT22;2810;50.134;8.626;2022-08-19T15:05:16;30.40;63.50
5576;DHT22;2810;50.134;8.626;2022-08-19T15:07:41;30.30;62.70
5576;DHT22;2810;50.134;8.626;2022-08-19T15:10:07;30.10;63.30
5576;DHT22;2810;50.134;8.626;2022-08-19T15:12:34;30.10;63.10
5576;DHT22;2810;50.134;8.626;2022-08-19T15:14:59;30.10;63.30
5576;DHT22;2810;50.134;8.626;2022-08-19T15:17:25;30.00;63.50
5576;DHT22;2810;50.134;8.626;2022-08-19T15:19:50;30.00;64.20
5576;DHT22;2810;50.134;8.626;2022-08-19T15:22:16;29.90;63.40
5576;DHT22;2810;50.134;8.626;2022-08-19T15:24:41;29.70;65.00
5576;DHT22;2810;50.134;8.626;2022-08-19T15:27:10;29.60;65.40
5576;DHT22;2810;50.134;8.626;2022-08-19T15:29:36;29.40;64.80
5576;DHT22;2810;50.134;8.626;2022-08-19T15:32:01;29.40;65.50
5576;DHT22;2810;50.134;8.626;2022-08-19T15:34:27;29.40;64.10
5576;DHT22;2810;50.134;8.626;2022-08-19T15:36:53;29.30;63.90
5576;DHT22;2810;50.134;8.626;2022-08-19T15:39:19;29.20;64.30
5576;DHT22;2810;50.134;8.626;2022-08-19T15:41:44;29.30;64.50
5576;DHT22;2810;50.134;8.626;2022-08-19T15:44:15;29.40;63.40
5576;DHT22;2810;50.134;8.626;2022-08-19T15:46:43;29.40;63.30
5576;DHT22;2810;50.134;8.626;2022-08-19T15:49:09;29.50;64.60
5576;DHT22;2810;50.134;8.626;2022-08-19T15:51:35;29.50;63.80
5576;DHT22;2810;50.134;8.626;2022-08-19T15:54:05;29.70;64.70
5576;DHT22;2810;50.134;8.626;2022-08-19T15:56:31;29.70;61.70
5576;DHT22;2810;50.134;8.626;2022-08-19T15:59:16;29.70;61.30
5576;DHT22;2810;50.134;8.626;2022-08-19T16:02:00;29.70;62.30
5576;DHT22;2810;50.134;8.626;2022-08-19T16:04:44;29.60;61.00
5576;DHT22;2810;50.134;8.626;2022-08-19T16:07:29;29.70;61.00
5576;DHT22;2810;50.134;8.626;2022-08-19T16:09:54;29.90;62.70
5576;DHT22;2810;50.134;8.626;2022-08-19T16:12:20;29.60;62.10